עמוד ראשי
METAR-TAF:

METAR-TAF

שדות תעופה :

איקיקה, צ'ילה

קו רוחב: 20-32S, קו אורך: 070-11W, גובה: 52מטר

תצפית מזג אוויר נוכחית

הדו"ח נערך לפני 42דקות, בשעה 10:00 UTC
רוח 4קשר מכיוון דרום/דרום-מזרח, משתנה בין מזרח ו דרום-מערב
טמפרטורת 16 צלסיוס
לחות 72%
לחץ 1015 hPa
ראות 10 קילומטר או יותר
מעונן בגובה 2200רגל

METAR: SCDA 241000Z 16004KT 100V220 9999 OVC022 16/11 Q1015

זמן: 06:42 (10:42 UTC)

תחזית

הדו"ח נערך לפני 5 שעות ו 51דקות, בשעה 04:51 UTC
תחזית בתוקף מ 24 ב 06 UTC עד 25 ב 06 UTC
רוח 4קשר מכיוון דרום/דרום-מזרח
ראות 10 קילומטר או יותר
מעונן בגובה 2000רגל
יעשה מ
24 ב 13 UTC עד 24 ב 15 UTC
רוח 16קשר מכיוון דרום/דרום-מערב
יעשה מ
24 ב 16 UTC עד 24 ב 18 UTC
עננים פזורים בגובה 2500רגל
יעשה מ
25 ב 00 UTC עד 25 ב 02 UTC
מעונן בגובה 2000רגל
יעשה מ
25 ב 04 UTC עד 25 ב 06 UTC
רוח 4קשר מכיוון דרום/דרום-מזרח

TAF: SCDA 240451Z 2406/2506 15004KT 9999 OVC020 TN15/2406Z TX18/2418Z BECMG 2413/2415 21016KT BECMG 2416/2418 SCT025 BECMG 2500/2502 OVC020 BECMG 2504/2506 15004KT

תצפיות ותחזיות מזג אוויר לגבי יותר מ- 4,000 שדות תעופה ברחבי העולם. דוחות METAR ו- TAF.

התחנות הזמינות מסומנות בנקודות צהובות ואדומות על גבי המפה.

העבר את העכבר לנקודה הצבעונית על מנת לראות את שם התחנה.

לאחר מכן, לחץ כדי לראות את תוכן ואת תחזיות מזג האוויר.

כדי לשנות את המפה: לחץ על הכפתורים הירוקים עם הפלוס השחור כדי להתקרב; על הכפתור הירוק עם המקף כדי להתרחק; או בחיצים הירוקים למפות סמוכות.


METAR-TAF: